AAL15 KLAX-KPHX
Flight info
| Callsign | AAL15 |
|---|---|
| Flight time | N/A |
| Altitude | 31000 |
| Route | DOTSS2 CNERY BLH HYDRR1 |
| Aircraft | B738/M-SDE2E3FGHIRWXY/LB1 |
Departure
| Time | 2026-05-05 21:03 |
|---|---|
| Airport | Los Angeles International Airport (KLAX) |
Arrival
| Time | N/A |
|---|---|
| Airport | Phoenix Sky Harbor International Airport (KPHX) |
| Time | Latitude | Longitude | Altitude | Speed | Heading |
|---|---|---|---|---|---|
| 2026-05-05 20:30 | 33.93956 | -118.40646 | 127 ft | 0 kts | 344° |
| 2026-05-05 20:44 | 33.93952 | -118.40644 | 126 ft | 2 kts | 344° |
| 2026-05-05 20:45 | 33.93932 | -118.40620 | 126 ft | 2 kts | 282° |
| 2026-05-05 20:45 | 33.93932 | -118.40601 | 126 ft | 2 kts | 253° |
| 2026-05-05 20:45 | 33.93939 | -118.40585 | 126 ft | 2 kts | 225° |
| 2026-05-05 20:46 | 33.93952 | -118.40575 | 126 ft | 2 kts | 197° |
| 2026-05-05 20:46 | 33.93965 | -118.40574 | 126 ft | 0 kts | 171° |
| 2026-05-05 20:46 | 33.93972 | -118.40575 | 126 ft | 1 kts | 166° |
| 2026-05-05 20:46 | 33.93973 | -118.40576 | 126 ft | 0 kts | 167° |
| 2026-05-05 20:56 | 33.93964 | -118.40573 | 126 ft | 0 kts | 164° |
| 2026-05-05 20:57 | 33.93962 | -118.40572 | 126 ft | 2 kts | 164° |
| 2026-05-05 20:57 | 33.93928 | -118.40561 | 126 ft | 7 kts | 163° |
| 2026-05-05 20:57 | 33.93881 | -118.40541 | 126 ft | 7 kts | 160° |
| 2026-05-05 20:57 | 33.93844 | -118.40515 | 125 ft | 6 kts | 129° |
| 2026-05-05 20:58 | 33.93834 | -118.40468 | 125 ft | 8 kts | 84° |
| 2026-05-05 20:58 | 33.93843 | -118.40372 | 124 ft | 13 kts | 83° |
| 2026-05-05 20:58 | 33.93855 | -118.40248 | 122 ft | 15 kts | 83° |
| 2026-05-05 20:58 | 33.93868 | -118.40122 | 121 ft | 16 kts | 83° |
| 2026-05-05 20:59 | 33.93882 | -118.39992 | 119 ft | 17 kts | 83° |
| 2026-05-05 20:59 | 33.93897 | -118.39841 | 116 ft | 18 kts | 83° |
| 2026-05-05 20:59 | 33.93912 | -118.39691 | 115 ft | 17 kts | 83° |
| 2026-05-05 20:59 | 33.93927 | -118.39547 | 113 ft | 18 kts | 83° |
| 2026-05-05 21:00 | 33.93941 | -118.39403 | 111 ft | 18 kts | 83° |
| 2026-05-05 21:00 | 33.93957 | -118.39247 | 110 ft | 19 kts | 83° |
| 2026-05-05 21:00 | 33.93976 | -118.39088 | 108 ft | 19 kts | 82° |
| 2026-05-05 21:00 | 33.93991 | -118.38932 | 107 ft | 19 kts | 84° |
| 2026-05-05 21:01 | 33.94004 | -118.38786 | 107 ft | 19 kts | 84° |
| 2026-05-05 21:01 | 33.94020 | -118.38620 | 106 ft | 18 kts | 84° |
| 2026-05-05 21:01 | 33.94033 | -118.38480 | 105 ft | 16 kts | 83° |
| 2026-05-05 21:01 | 33.94049 | -118.38340 | 104 ft | 16 kts | 81° |
| 2026-05-05 21:02 | 33.94067 | -118.38209 | 104 ft | 16 kts | 80° |
| 2026-05-05 21:02 | 33.94076 | -118.38071 | 103 ft | 15 kts | 104° |
| 2026-05-05 21:02 | 33.94006 | -118.38018 | 103 ft | 12 kts | 201° |
| 2026-05-05 21:02 | 33.93969 | -118.38129 | 104 ft | 22 kts | 263° |
| 2026-05-05 21:03 | 33.93932 | -118.38500 | 105 ft | 82 kts | 262° |
| 2026-05-05 21:03 | 33.93714 | -118.40883 | 377 ft | 164 kts | 265° |
| 2026-05-05 21:03 | 33.93575 | -118.42252 | 858 ft | 166 kts | 259° |
| 2026-05-05 21:04 | 33.93293 | -118.43613 | 1213 ft | 177 kts | 258° |
| 2026-05-05 21:04 | 33.93221 | -118.45151 | 1519 ft | 187 kts | 270° |
| 2026-05-05 21:04 | 33.92906 | -118.46706 | 1732 ft | 198 kts | 237° |
| 2026-05-05 21:04 | 33.92009 | -118.47902 | 2178 ft | 199 kts | 226° |
| 2026-05-05 21:05 | 33.91044 | -118.49148 | 2686 ft | 210 kts | 230° |
| 2026-05-05 21:05 | 33.90072 | -118.50519 | 3193 ft | 223 kts | 231° |
| 2026-05-05 21:05 | 33.89037 | -118.52004 | 3644 ft | 239 kts | 231° |
| 2026-05-05 21:05 | 33.87955 | -118.53545 | 4341 ft | 243 kts | 231° |
| 2026-05-05 21:06 | 33.86745 | -118.54978 | 5009 ft | 249 kts | 218° |
| 2026-05-05 21:06 | 33.85165 | -118.55813 | 5640 ft | 258 kts | 191° |
| 2026-05-05 21:06 | 33.83353 | -118.55768 | 6372 ft | 265 kts | 170° |
| 2026-05-05 21:06 | 33.81518 | -118.55292 | 6937 ft | 280 kts | 167° |
| 2026-05-05 21:07 | 33.79594 | -118.54758 | 7660 ft | 289 kts | 167° |
| 2026-05-05 21:07 | 33.77633 | -118.54221 | 8500 ft | 292 kts | 168° |
| 2026-05-05 21:07 | 33.75620 | -118.53675 | 9376 ft | 296 kts | 168° |
| 2026-05-05 21:07 | 33.73621 | -118.53127 | 10216 ft | 301 kts | 166° |
| 2026-05-05 21:08 | 33.71592 | -118.52269 | 10740 ft | 318 kts | 152° |
| 2026-05-05 21:08 | 33.69825 | -118.50613 | 11277 ft | 334 kts | 130° |
| 2026-05-05 21:08 | 33.68574 | -118.48200 | 11797 ft | 348 kts | 112° |
| 2026-05-05 21:08 | 33.67715 | -118.45445 | 12520 ft | 357 kts | 108° |
| 2026-05-05 21:09 | 33.66907 | -118.42664 | 13419 ft | 360 kts | 108° |
| 2026-05-05 21:09 | 33.66073 | -118.39796 | 14279 ft | 366 kts | 108° |
| 2026-05-05 21:09 | 33.65276 | -118.36924 | 15184 ft | 370 kts | 105° |
| 2026-05-05 21:09 | 33.64958 | -118.35528 | 15617 ft | 371 kts | 102° |
| 2026-05-05 21:11 | 33.64439 | -118.31556 | 16770 ft | 375 kts | 93° |
| 2026-05-05 21:11 | 33.64325 | -118.28406 | 17644 ft | 378 kts | 89° |
| 2026-05-05 21:11 | 33.64326 | -118.25259 | 18437 ft | 383 kts | 88° |
| 2026-05-05 21:11 | 33.64369 | -118.22054 | 19294 ft | 387 kts | 87° |
| 2026-05-05 21:12 | 33.64411 | -118.18834 | 20109 ft | 391 kts | 88° |
| 2026-05-05 21:12 | 33.64439 | -118.15573 | 20927 ft | 394 kts | 88° |
| 2026-05-05 21:12 | 33.64456 | -118.12276 | 21692 ft | 399 kts | 88° |
| 2026-05-05 21:12 | 33.64465 | -118.08958 | 22430 ft | 403 kts | 88° |
| 2026-05-05 21:13 | 33.64468 | -118.05547 | 23193 ft | 407 kts | 88° |
| 2026-05-05 21:13 | 33.64467 | -118.02174 | 23954 ft | 410 kts | 88° |
| 2026-05-05 21:13 | 33.64465 | -117.98762 | 24552 ft | 415 kts | 88° |
| 2026-05-05 21:13 | 33.64460 | -117.95301 | 25110 ft | 420 kts | 88° |
| 2026-05-05 21:14 | 33.64452 | -117.91781 | 25731 ft | 423 kts | 88° |
| 2026-05-05 21:14 | 33.64443 | -117.88278 | 26236 ft | 428 kts | 88° |
| 2026-05-05 21:14 | 33.64419 | -117.84724 | 26769 ft | 433 kts | 89° |
| 2026-05-05 21:14 | 33.64263 | -117.81121 | 27297 ft | 437 kts | 93° |
| 2026-05-05 21:15 | 33.63853 | -117.77572 | 27778 ft | 443 kts | 99° |
| 2026-05-05 21:15 | 33.63184 | -117.74006 | 28265 ft | 445 kts | 103° |
| 2026-05-05 21:15 | 33.62358 | -117.70438 | 28881 ft | 443 kts | 105° |
| 2026-05-05 21:15 | 33.61474 | -117.66914 | 29396 ft | 443 kts | 105° |
| 2026-05-05 21:16 | 33.60583 | -117.63449 | 29903 ft | 444 kts | 106° |
| 2026-05-05 21:16 | 33.59672 | -117.59917 | 30265 ft | 447 kts | 106° |
| 2026-05-05 21:16 | 33.58761 | -117.56358 | 30611 ft | 451 kts | 106° |
| 2026-05-05 21:16 | 33.57848 | -117.52773 | 30929 ft | 454 kts | 107° |
| 2026-05-05 21:17 | 33.56014 | -117.45498 | 31012 ft | 456 kts | 107° |
| 2026-05-05 21:17 | 33.54204 | -117.38258 | 31027 ft | 452 kts | 107° |
| 2026-05-05 21:18 | 33.52464 | -117.31300 | 31026 ft | 455 kts | 107° |
| 2026-05-05 21:18 | 33.50838 | -117.23895 | 31022 ft | 455 kts | 101° |
| 2026-05-05 21:19 | 33.50233 | -117.16911 | 31026 ft | 454 kts | 92° |
| 2026-05-05 21:19 | 33.50113 | -117.09151 | 31024 ft | 459 kts | 90° |
| 2026-05-05 21:20 | 33.50095 | -117.01714 | 31020 ft | 458 kts | 90° |
| 2026-05-05 21:20 | 33.50046 | -116.94155 | 31016 ft | 459 kts | 91° |
| 2026-05-05 21:21 | 33.49963 | -116.86643 | 31000 ft | 460 kts | 91° |
| 2026-05-05 21:21 | 33.49853 | -116.78953 | 30988 ft | 459 kts | 91° |
| 2026-05-05 21:22 | 33.49731 | -116.71332 | 30988 ft | 460 kts | 91° |
| 2026-05-05 21:22 | 33.49593 | -116.63618 | 30987 ft | 459 kts | 92° |
| 2026-05-05 21:23 | 33.49514 | -116.59202 | 30995 ft | 460 kts | 92° |
| 2026-05-05 21:23 | 33.49460 | -116.56136 | 30990 ft | 460 kts | 92° |
| 2026-05-05 21:24 | 33.49321 | -116.48360 | 30982 ft | 466 kts | 92° |
| 2026-05-05 21:24 | 33.49172 | -116.40628 | 30965 ft | 463 kts | 92° |
| 2026-05-05 21:25 | 33.49052 | -116.32957 | 30971 ft | 464 kts | 92° |
| 2026-05-05 21:25 | 33.48949 | -116.25215 | 30962 ft | 467 kts | 93° |
| 2026-05-05 21:26 | 33.48838 | -116.17475 | 30955 ft | 465 kts | 93° |
| 2026-05-05 21:26 | 33.48708 | -116.09693 | 30932 ft | 466 kts | 92° |
| 2026-05-05 21:27 | 33.49184 | -116.01886 | 30908 ft | 473 kts | 80° |
| 2026-05-05 21:27 | 33.50980 | -115.94376 | 30902 ft | 471 kts | 71° |
| 2026-05-05 21:28 | 33.53244 | -115.86958 | 30904 ft | 476 kts | 70° |
| 2026-05-05 21:28 | 33.55528 | -115.79536 | 30917 ft | 471 kts | 70° |
| 2026-05-05 21:29 | 33.57717 | -115.72188 | 30918 ft | 474 kts | 70° |
| 2026-05-05 21:29 | 33.59903 | -115.64718 | 30919 ft | 474 kts | 72° |
| 2026-05-05 21:30 | 33.61537 | -115.57050 | 30929 ft | 475 kts | 84° |
| 2026-05-05 21:30 | 33.61809 | -115.49203 | 30940 ft | 471 kts | 94° |
| 2026-05-05 21:31 | 33.61559 | -115.41357 | 30934 ft | 470 kts | 95° |
| 2026-05-05 21:31 | 33.61272 | -115.33555 | 30932 ft | 471 kts | 96° |
| 2026-05-05 21:32 | 33.61016 | -115.25688 | 30929 ft | 475 kts | 96° |
| 2026-05-05 21:32 | 33.60783 | -115.17806 | 30892 ft | 472 kts | 96° |
| 2026-05-05 21:33 | 33.60552 | -115.09842 | 30892 ft | 478 kts | 96° |
| 2026-05-05 21:33 | 33.60326 | -115.01891 | 30882 ft | 476 kts | 96° |
| 2026-05-05 21:34 | 33.60111 | -114.94106 | 30924 ft | 478 kts | 96° |
| 2026-05-05 21:34 | 33.59892 | -114.86089 | 30883 ft | 478 kts | 96° |
| 2026-05-05 21:35 | 33.59603 | -114.78090 | 30876 ft | 477 kts | 99° |
| 2026-05-05 21:35 | 33.58625 | -114.70278 | 30882 ft | 476 kts | 108° |
| 2026-05-05 21:36 | 33.57132 | -114.62543 | 30881 ft | 475 kts | 110° |
| 2026-05-05 21:36 | 33.55561 | -114.54856 | 30870 ft | 477 kts | 110° |
| 2026-05-05 21:37 | 33.53997 | -114.47142 | 30834 ft | 474 kts | 110° |
| 2026-05-05 21:37 | 33.53231 | -114.43294 | 30498 ft | 468 kts | 110° |
| 2026-05-05 21:37 | 33.52483 | -114.39513 | 30009 ft | 467 kts | 110° |
| 2026-05-05 21:38 | 33.51732 | -114.35729 | 29374 ft | 469 kts | 110° |
| 2026-05-05 21:38 | 33.51004 | -114.32076 | 28825 ft | 468 kts | 110° |
| 2026-05-05 21:38 | 33.50270 | -114.28385 | 28254 ft | 467 kts | 110° |
| 2026-05-05 21:38 | 33.50223 | -114.28146 | 28215 ft | 467 kts | 109° |
| 2026-05-05 21:39 | 33.49724 | -114.25633 | 27824 ft | 466 kts | 109° |
| 2026-05-05 21:40 | 33.48982 | -114.21896 | 27215 ft | 465 kts | 108° |
| 2026-05-05 21:40 | 33.48228 | -114.18092 | 26572 ft | 464 kts | 108° |
| 2026-05-05 21:40 | 33.47490 | -114.14375 | 25963 ft | 463 kts | 107° |
| 2026-05-05 21:40 | 33.46753 | -114.10680 | 25337 ft | 461 kts | 106° |
| 2026-05-05 21:41 | 33.46269 | -114.08250 | 25037 ft | 456 kts | 106° |
| 2026-05-05 21:41 | 33.45547 | -114.04607 | 24925 ft | 440 kts | 106° |
| 2026-05-05 21:41 | 33.44850 | -114.01086 | 24880 ft | 424 kts | 106° |
| 2026-05-05 21:42 | 33.44175 | -113.97707 | 24897 ft | 418 kts | 107° |
| 2026-05-05 21:42 | 33.43486 | -113.94276 | 24894 ft | 424 kts | 107° |
| 2026-05-05 21:42 | 33.42788 | -113.90821 | 24906 ft | 430 kts | 108° |